Latest Weather Observations for Hervey Bay

IDQ60801

Issued at 4:32 pm EST Friday 19 April 2019 (issued every 10 minutes, with the page automatically refreshed every 10 minutes)

About weather observations | Map of weather stations | Latest weather observations for QLD | Other Formats
Station Details ID: 040405 Name: HERVEY BAY AIRPORT Lat: -25.32 Lon: 152.88 Height: 12.98 m
Data from the previous 72 hours. | See also: Recent months at Hervey Bay
Date/Time
EST
Temp
°C
App
Temp
°C
Dew
Point
°C
Rel
Hum
%
Delta-T
°C
Wind Press
QNH
hPa
Press
MSL
hPa
Rain since
9am
mm
Dir  Spd
km/h
Gust
km/h
Spd
kts
Gust
kts
19/04:30pm 22.5 24.9 20.8 90 1.1 S 9 19 5 10 1018.4 1018.3 6.0
19/04:00pm 21.5 23.6 19.4 88 1.3 SSE 7 11 4 6 1018.3 1018.2 5.4
19/03:30pm 22.2 21.0 19.2 83 1.9 ESE 24 35 13 19 1018.3 1018.2 4.4
19/03:00pm 24.8 25.0 19.4 72 3.5 SSE 17 26 9 14 1018.1 1018.0 3.8
19/02:30pm 25.2 24.7 19.1 69 3.9 SSE 20 35 11 19 1018.1 1018.0 3.8
19/02:00pm 26.2 25.9 19.6 67 4.3 SE 20 32 11 17 1018.2 1018.1 3.8
19/01:30pm 25.3 25.4 19.9 72 3.5 SSE 19 30 10 16 1018.4 1018.3 3.8
19/01:00pm 24.2 25.1 20.1 78 2.7 SSE 15 22 8 12 1018.7 1018.6 3.8
19/12:30pm 25.4 25.3 20.0 72 3.5 S 20 32 11 17 1019.1 1019.0 3.0
19/12:00pm 25.2 25.1 20.0 73 3.4 SSE 20 33 11 18 1019.7 1019.6 3.0
19/11:30am 24.2 24.7 20.1 78 2.7 S 17 30 9 16 1020.3 1020.2 3.0
19/11:00am 24.1 25.0 20.8 82 2.2 SSE 17 24 9 13 1020.7 1020.6 3.0
19/10:30am 22.6 24.2 20.7 89 1.2 S 13 20 7 11 1021.0 1020.9 3.0
19/10:19am 22.3 23.0 20.4 89 1.2 S 17 24 9 13 1021.2 1021.1 2.8
19/10:00am 22.1 22.4 19.6 86 1.6 SSE 17 30 9 16 1021.3 1021.2 2.2
19/09:55am 22.4 22.0 19.4 83 1.9 SSE 20 30 11 16 1021.5 1021.4 1.0
19/09:30am 24.7 24.2 19.1 71 3.6 S 20 33 11 18 1021.0 1020.9 0.0
19/09:00am 23.6 23.0 18.9 75 3.0 S 20 30 11 16 1021.0 1020.9 0.2
19/08:30am 23.2 22.6 18.9 77 2.7 S 20 32 11 17 1021.0 1020.9 0.2
19/08:00am 22.7 22.3 18.9 79 2.4 SSE 19 35 10 19 1020.8 1020.7 0.2
19/07:30am 21.5 21.9 19.1 86 1.5 SSW 15 32 8 17 1020.5 1020.4 0.2
19/07:00am 19.8 20.7 18.3 91 0.9 SSW 11 19 6 10 1020.3 1020.2 0.2
19/06:43am 19.2 20.3 18.0 93 0.7 S 9 13 5 7 1020.2 1020.1 0.2
19/06:30am 18.9 19.5 17.7 93 0.7 SSW 11 15 6 8 1020.1 1020.0 0.2
19/06:23am 18.8 19.4 17.6 93 0.7 SSW 11 15 6 8 1020.2 1020.1 0.2
19/06:00am 18.8 19.0 17.6 93 0.7 SSW 13 19 7 10 1019.9 1019.8 0.2
19/05:30am 18.8 19.4 17.6 93 0.7 SSW 11 17 6 9 1019.8 1019.7 0.2
19/05:00am 18.8 18.9 17.5 92 0.8 SSW 13 19 7 10 1019.6 1019.5 0.0
19/04:30am 18.7 18.8 17.4 92 0.8 SSW 13 19 7 10 1019.4 1019.3 0.0
19/04:00am 18.8 18.8 17.3 91 0.9 SSW 13 20 7 11 1019.3 1019.2 0.0
19/03:30am 18.7 18.2 17.0 90 1.0 SSW 15 19 8 10 1019.3 1019.2 0.0
19/03:00am 18.7 18.6 17.0 90 1.0 SSW 13 19 7 10 1019.6 1019.5 0.0
19/02:30am 18.9 18.4 17.0 89 1.1 SW 15 20 8 11 1019.6 1019.5 0.0
19/02:00am 19.1 19.1 17.2 89 1.2 SW 13 17 7 9 1020.1 1020.0 0.0
19/01:30am 19.4 20.3 17.5 89 1.2 SW 9 13 5 7 1020.4 1020.3 0.0
19/01:00am 19.5 20.1 17.6 89 1.2 SSW 11 15 6 8 1020.8 1020.7 0.0
19/12:30am 20.0 20.7 18.0 88 1.2 S 11 17 6 9 1021.0 1020.9 0.0
19/12:00am 19.3 19.9 17.6 90 1.0 SSW 11 13 6 7 1021.3 1021.2 0.0
 
Date/Time
EST
Temp
°C
App
Temp
°C
Dew
Point
°C
Rel
Hum
%
Delta-T
°C
Wind Press
QNH
hPa
Press
MSL
hPa
Rain since
9am
mm
Dir  Spd
km/h
Gust
km/h
Spd
kts
Gust
kts
18/11:30pm 19.3 19.9 17.6 90 1.0 SSW 11 15 6 8 1021.7 1021.6 0.0
18/11:00pm 19.3 20.1 17.4 89 1.2 SSW 9 11 5 6 1021.8 1021.7 0.0
18/10:30pm 19.7 20.7 17.7 88 1.2 SW 9 11 5 6 1021.8 1021.7 0.0
18/10:00pm 20.3 21.7 17.9 86 1.5 SSW 7 11 4 6 1021.9 1021.8 0.0
18/09:30pm 20.6 21.2 17.8 84 1.7 S 11 17 6 9 1021.9 1021.8 0.0
18/09:00pm 20.4 21.2 17.4 83 1.8 SSW 9 11 5 6 1022.0 1021.9 0.0
18/08:30pm 20.7 21.5 17.3 81 2.1 SSW 9 11 5 6 1021.8 1021.7 0.0
18/08:00pm 20.9 21.9 16.9 78 2.4 SSW 7 9 4 5 1021.5 1021.4 0.0
18/07:30pm 21.7 22.4 17.1 75 2.8 S 9 13 5 7 1021.3 1021.2 0.0
18/07:00pm 22.2 22.8 16.9 72 3.2 S 9 15 5 8 1020.9 1020.8 0.0
18/06:30pm 22.7 23.0 16.9 70 3.6 S 11 17 6 9 1020.5 1020.4 0.0
18/06:00pm 23.0 22.8 16.8 68 3.8 SSE 13 20 7 11 1020.1 1020.0 0.0
18/05:30pm 23.5 22.5 16.5 65 4.3 SSE 17 26 9 14 1019.6 1019.5 0.0
18/05:00pm 24.2 23.4 17.0 64 4.4 SSE 17 26 9 14 1019.3 1019.2 0.0
18/04:30pm 24.8 23.3 16.8 61 4.9 SE 20 32 11 17 1019.1 1019.0 0.0
18/04:00pm 25.2 24.1 17.7 63 4.7 SSE 20 32 11 17 1018.9 1018.8 0.0
18/03:30pm 25.6 23.4 17.0 59 5.3 SSE 24 35 13 19 1018.9 1018.8 0.0
18/03:00pm 26.5 25.1 17.0 56 5.9 SSE 20 32 11 17 1019.0 1018.9 0.0
18/02:30pm 26.4 24.2 16.9 56 5.9 SE 24 35 13 19 1019.0 1018.9 0.0
18/02:00pm 26.6 24.5 17.1 56 5.9 SSE 24 37 13 20 1019.2 1019.1 0.0
18/01:30pm 26.3 24.1 16.8 56 5.9 SSE 24 35 13 19 1019.3 1019.2 0.0
18/01:00pm 26.1 24.3 16.9 57 5.7 SSE 22 33 12 18 1019.6 1019.5 0.0
18/12:30pm 27.3 25.4 16.6 52 6.6 SSE 22 35 12 19 1019.7 1019.6 0.0
18/12:00pm 26.7 25.7 18.0 59 5.5 SSE 20 32 11 17 1020.0 1019.9 0.0
18/11:30am 26.1 23.5 16.9 57 5.7 SSE 26 43 14 23 1020.4 1020.3 0.0
18/11:00am 26.5 25.3 17.6 58 5.6 SSE 20 33 11 18 1020.9 1020.8 0.0
18/10:30am 25.3 23.7 17.5 62 4.9 SSE 22 33 12 18 1021.1 1021.0 0.0
18/10:00am 25.1 24.2 18.1 65 4.4 S 20 28 11 15 1021.2 1021.1 0.0
18/09:30am 24.5 24.1 18.0 67 4.1 S 17 28 9 15 1021.3 1021.2 0.0
18/09:00am 24.0 23.8 18.6 72 3.4 S 17 28 9 15 1021.2 1021.1 0.4
18/08:30am 22.8 22.5 18.3 76 2.8 S 17 26 9 14 1021.1 1021.0 0.4
18/08:00am 21.7 22.3 18.7 83 1.9 SSW 13 19 7 10 1020.9 1020.8 0.4
18/07:30am 19.7 19.9 17.7 88 1.2 SSW 13 17 7 9 1020.8 1020.7 0.4
18/07:00am 19.1 19.7 17.8 92 0.8 SSW 11 17 6 9 1020.5 1020.4 0.4
18/06:30am 18.3 18.6 17.1 93 0.7 SSW 11 15 6 8 1020.2 1020.1 0.4
18/06:00am 18.2 18.1 17.0 93 0.7 SW 13 15 7 8 1019.7 1019.6 0.4
18/05:30am 18.2 18.5 17.0 93 0.7 SW 11 15 6 8 1019.5 1019.4 0.4
18/05:00am 18.2 18.5 16.9 92 0.8 SSW 11 15 6 8 1019.3 1019.2 0.4
18/04:30am 18.2 18.5 16.9 92 0.8 SSW 11 15 6 8 1019.3 1019.2 0.4
18/04:00am 18.3 18.5 16.8 91 0.9 SSW 11 17 6 9 1019.1 1019.0 0.4
18/03:30am 18.4 18.6 16.7 90 1.0 SW 11 17 6 9 1019.1 1019.0 0.4
18/03:00am 18.7 19.1 17.2 91 0.9 SW 11 13 6 7 1019.1 1019.0 0.2
18/02:30am 18.8 18.9 17.5 92 0.8 SW 13 17 7 9 1019.2 1019.1 0.2
18/02:00am 18.5 19.2 17.0 91 0.9 SSW 9 11 5 6 1019.4 1019.3 0.2
18/01:30am 18.6 19.2 16.9 90 1.0 SW 9 11 5 6 1019.6 1019.5 0.2
18/01:00am 18.8 18.3 16.9 89 1.1 SSW 15 20 8 11 1019.9 1019.8 0.2
18/12:30am 18.8 18.7 16.9 89 1.1 SW 13 17 7 9 1020.0 1019.9 0.2
18/12:00am 18.6 19.2 16.8 89 1.1 SW 9 11 5 6 1020.1 1020.0 0.2
 
Date/Time
EST
Temp
°C
App
Temp
°C
Dew
Point
°C
Rel
Hum
%
Delta-T
°C
Wind Press
QNH
hPa
Press
MSL
hPa
Rain since
9am
mm
Dir  Spd
km/h
Gust
km/h
Spd
kts
Gust
kts
17/11:30pm 18.7 19.3 16.7 88 1.2 SSW 9 13 5 7 1020.1 1020.0 0.2
17/11:00pm 19.0 20.1 17.1 89 1.1 SW 7 11 4 6 1020.3 1020.2 0.2
17/10:30pm 19.4 20.4 16.8 85 1.6 SW 7 9 4 5 1020.3 1020.2 0.2
17/10:00pm 20.4 21.2 17.4 83 1.8 SSW 9 13 5 7 1020.5 1020.4 0.2
17/09:30pm 20.4 20.8 17.2 82 2.0 SSW 11 15 6 8 1020.7 1020.6 0.2
17/09:00pm 20.5 21.1 16.9 80 2.2 SSW 9 15 5 8 1020.7 1020.6 0.2
17/08:30pm 20.9 21.1 16.7 77 2.5 S 11 15 6 8 1020.5 1020.4 0.2
17/08:00pm 21.0 21.5 16.6 76 2.7 S 9 13 5 7 1020.5 1020.4 0.2
17/07:30pm 21.3 21.5 16.7 75 2.8 S 11 13 6 7 1020.1 1020.0 0.2
17/07:00pm 21.5 21.7 16.7 74 2.9 S 11 15 6 8 1019.8 1019.7 0.2
17/06:30pm 22.0 22.1 16.5 71 3.3 S 11 17 6 9 1019.5 1019.4 0.2
17/06:00pm 22.5 22.5 16.3 68 3.8 S 11 15 6 8 1019.1 1019.0 0.2
17/05:30pm 23.0 22.8 16.8 68 3.8 SSE 13 19 7 10 1018.9 1018.8 0.2
17/05:00pm 23.8 23.0 17.1 66 4.1 SSE 17 26 9 14 1018.6 1018.5 0.2
17/04:30pm 24.3 22.9 17.1 64 4.5 SSE 20 33 11 18 1018.5 1018.4 0.2
17/04:00pm 25.2 24.8 17.1 60 5.0 SE 15 26 8 14 1018.2 1018.1 0.2
17/03:30pm 25.2 23.6 16.4 58 5.4 SE 20 32 11 17 1018.1 1018.0 0.2
17/03:00pm 25.4 23.8 16.5 58 5.5 SE 20 32 11 17 1017.9 1017.8 0.2
17/02:30pm 25.4 23.6 16.0 56 5.7 SE 20 32 11 17 1017.9 1017.8 0.2
17/02:00pm 26.1 24.0 17.2 58 5.5 SE 24 33 13 18 1017.8 1017.7 0.2
17/01:30pm 26.2 24.2 16.4 54 6.0 SE 22 37 12 20 1018.0 1017.9 0.2
17/01:00pm 25.8 24.5 16.9 58 5.5 SSE 19 28 10 15 1018.3 1018.2 0.2
17/12:30pm 26.7 26.1 17.5 57 5.8 SSE 17 32 9 17 1018.7 1018.6 0.2
17/12:00pm 25.8 24.2 16.6 56 5.7 SSE 20 32 11 17 1019.1 1019.0 0.2
17/11:30am 25.6 23.8 17.0 59 5.3 SSE 22 41 12 22 1019.5 1019.4 0.2
17/11:00am 23.8 23.3 17.8 69 3.7 SSE 17 30 9 16 1019.9 1019.8 0.2
17/10:30am 25.6 24.7 17.8 62 4.9 S 19 32 10 17 1020.0 1019.9 0.2
17/10:00am 24.5 24.1 18.0 67 4.1 S 17 26 9 14 1020.2 1020.1 0.0
17/09:30am 24.0 23.6 18.0 69 3.8 S 17 24 9 13 1020.3 1020.2 0.0
17/09:00am 23.4 22.9 17.8 71 3.5 S 17 24 9 13 1020.4 1020.3 0.0
17/08:30am 22.3 22.0 17.4 74 3.0 S 15 24 8 13 1020.3 1020.2 0.0
17/08:00am 21.5 20.2 17.3 77 2.6 S 20 32 11 17 1020.1 1020.0 0.0
17/07:30am 20.0 20.5 17.4 85 1.6 SSW 11 15 6 8 1019.8 1019.7 0.0
17/07:00am 19.0 19.0 17.1 89 1.1 SSW 13 17 7 9 1019.5 1019.4 0.0
17/06:30am 18.3 18.2 17.0 92 0.8 SSW 13 19 7 10 1019.3 1019.2 0.0
17/06:00am 18.4 18.7 17.1 92 0.8 SSW 11 17 6 9 1019.1 1019.0 0.0
17/05:30am 18.3 17.8 17.0 92 0.8 SSW 15 20 8 11 1018.7 1018.6 0.0
17/05:00am 18.2 18.1 16.9 92 0.8 SSW 13 15 7 8 1018.7 1018.6 0.0
17/04:30am 17.9 17.7 16.6 92 0.8 SSW 13 17 7 9 1018.5 1018.4 0.0
17/04:00am 17.8 17.5 16.5 92 0.8 SSW 13 15 7 8 1018.1 1018.0 0.0
17/03:30am 17.9 18.0 16.4 91 0.9 SSW 11 17 6 9 1018.0 1017.9 0.0
17/03:00am 18.1 17.8 16.4 90 1.0 SW 13 19 7 10 1018.1 1018.0 0.0
17/02:30am 18.1 17.7 16.3 89 1.1 SW 13 17 7 9 1018.3 1018.2 0.0
17/02:00am 18.5 18.7 16.7 89 1.1 SSW 11 15 6 8 1018.4 1018.3 0.0
17/01:30am 18.6 18.7 16.6 88 1.2 SSW 11 17 6 9 1018.6 1018.5 0.0
17/01:00am 18.8 18.9 16.6 87 1.3 SW 11 17 6 9 1019.0 1018.9 0.0
17/12:30am 19.0 19.6 16.8 87 1.3 SSW 9 13 5 7 1019.2 1019.1 0.0
17/12:00am 19.2 19.8 16.8 86 1.4 SW 9 15 5 8 1019.2 1019.1 0.0
 
Date/Time
EST
Temp
°C
App
Temp
°C
Dew
Point
°C
Rel
Hum
%
Delta-T
°C
Wind Press
QNH
hPa
Press
MSL
hPa
Rain since
9am
mm
Dir  Spd
km/h
Gust
km/h
Spd
kts
Gust
kts
16/11:30pm 19.5 20.1 16.9 85 1.6 SSE 9 13 5 7 1019.5 1019.4 0.0
16/11:00pm 18.9 19.5 16.7 87 1.3 S 9 15 5 8 1019.5 1019.4 0.0
16/10:30pm 19.0 19.4 17.3 90 1.0 SSW 11 13 6 7 1019.8 1019.7 0.0
16/10:00pm 18.9 19.1 16.7 87 1.3 SSW 11 15 6 8 1019.9 1019.8 0.0
16/09:30pm 19.0 19.3 16.0 83 1.8 S 9 11 5 6 1020.1 1020.0 0.0
16/09:00pm 19.4 18.3 16.4 83 1.8 S 17 26 9 14 1020.3 1020.2 0.0
16/08:30pm 20.6 20.9 17.8 84 1.7 SE 13 20 7 11 1020.2 1020.1 0.0
16/08:00pm 20.7 21.0 17.1 80 2.2 SSE 11 17 6 9 1020.0 1019.9 0.0
16/07:30pm 21.2 21.7 17.4 79 2.3 S 11 19 6 10 1019.8 1019.7 0.0
16/07:00pm 20.9 21.2 16.9 78 2.4 SSE 11 17 6 9 1019.5 1019.4 0.0
16/06:30pm 21.2 21.0 16.6 75 2.8 SSE 13 20 7 11 1019.4 1019.3 0.0
16/06:00pm 21.7 21.6 16.9 74 2.9 SE 13 22 7 12 1019.2 1019.1 0.0
16/05:30pm 22.5 22.0 17.0 71 3.4 SSE 15 26 8 14 1018.7 1018.6 0.0
16/05:00pm 22.7 21.7 16.7 69 3.7 SSE 17 26 9 14 1018.3 1018.2 0.0

Other formats

Comma delimited format used in spreadsheet applications
http://www.bom.gov.au/fwo/IDQ60801/IDQ60801.95565.axf

JavaScript Object Notation format (JSON) in row-major order
http://www.bom.gov.au/fwo/IDQ60801/IDQ60801.95565.json

Data quality

Most of these data are generated automatically and are frequently updated. Quality checks on data are not normally performed. It is possible for incorrect values to appear. Refer to information at About Latest Weather Observations and please check the disclaimer before using these data.